Time;durP1;ratioP1;P1;durP2;ratioP2;P2;SDS_P1;SDS_P2;PMS_P1;PMS_P2;Temp;Humidity;BMP_temperature;BMP_pressure;BME280_temperature;BME280_humidity;BME280_pressure;Samples;Min_cycle;Max_cycle;Signal;HPM_P1;HPM_P2
2022/08/16 00:00:54;;;;;;;5.53;4.10;;;20.50;1.00;;;;;;5088277;28;20516;-75
2022/08/16 00:03:20;;;;;;;5.47;3.63;;;20.40;1.00;;;;;;5086711;28;20215;-75
2022/08/16 00:05:46;;;;;;;5.77;4.20;;;20.40;1.00;;;;;;5088725;28;20210;-75
2022/08/16 00:08:11;;;;;;;5.20;4.60;;;20.30;1.00;;;;;;5088146;28;20270;-75
2022/08/16 00:10:37;;;;;;;10.50;4.67;;;20.30;1.00;;;;;;5085462;28;20176;-75
2022/08/16 00:13:06;;;;;;;5.70;4.00;;;20.30;1.00;;;;;;5085350;28;20187;-75
2022/08/16 00:15:40;;;;;;;6.70;4.03;;;20.30;1.00;;;;;;5086123;28;20738;-75
2022/08/16 00:18:06;;;;;;;6.37;4.20;;;20.20;1.00;;;;;;5080783;28;20909;-75
2022/08/16 00:20:32;;;;;;;6.70;4.83;;;20.20;1.00;;;;;;5087464;28;20939;-75
2022/08/16 00:22:59;;;;;;;13.90;4.60;;;20.30;1.00;;;;;;5088693;28;20475;-75
2022/08/16 00:25:25;;;;;;;6.53;3.90;;;20.20;1.00;;;;;;5083759;28;20207;-75
2022/08/16 00:27:51;;;;;;;7.20;4.37;;;20.20;1.00;;;;;;5089060;28;20516;-75
2022/08/16 00:30:19;;;;;;;4.73;3.60;;;20.10;1.00;;;;;;5088385;28;20497;-75
2022/08/16 00:32:47;;;;;;;5.13;3.90;;;20.10;1.00;;;;;;5076010;28;20203;-75
2022/08/16 00:35:17;;;;;;;5.50;3.93;;;20.10;1.00;;;;;;5068551;28;20435;-75
2022/08/16 00:37:44;;;;;;;5.97;4.33;;;20.00;1.00;;;;;;5087038;28;20488;-75
2022/08/16 00:40:11;;;;;;;5.23;4.10;;;20.00;1.00;;;;;;5077009;28;20438;-75
2022/08/16 00:42:36;;;;;;;8.50;4.63;;;20.00;1.00;;;;;;5083816;28;20447;-75
2022/08/16 00:45:28;;;;;;;6.00;4.13;;;20.00;1.00;;;;;;5085322;28;20457;-75
2022/08/16 00:47:54;;;;;;;6.67;4.70;;;19.90;1.00;;;;;;5071827;28;20283;-75
2022/08/16 00:50:25;;;;;;;7.60;4.80;;;19.80;1.00;;;;;;5082394;28;20879;-74
2022/08/16 00:52:51;;;;;;;8.47;4.90;;;19.70;1.00;;;;;;5087383;28;20767;-75
2022/08/16 00:55:18;;;;;;;6.97;4.60;;;19.70;1.00;;;;;;5093963;28;20441;-75
2022/08/16 00:57:43;;;;;;;5.40;4.70;;;19.70;1.00;;;;;;5085837;28;20553;-75
2022/08/16 01:00:10;;;;;;;5.00;4.47;;;19.70;1.00;;;;;;5082949;28;20439;-74
2022/08/16 01:02:35;;;;;;;8.50;4.60;;;19.60;1.00;;;;;;5083788;28;20196;-75
2022/08/16 01:05:01;;;;;;;8.20;4.20;;;19.60;1.00;;;;;;5085067;28;20495;-75
2022/08/16 01:07:27;;;;;;;5.67;4.60;;;19.60;1.00;;;;;;5086682;28;20183;-75
2022/08/16 01:09:53;;;;;;;8.30;4.67;;;19.60;1.00;;;;;;5085744;28;20172;-75
2022/08/16 01:12:20;;;;;;;6.40;4.73;;;19.60;1.00;;;;;;5082193;28;20491;-75
2022/08/16 01:14:50;;;;;;;6.47;5.30;;;19.60;1.00;;;;;;5085323;28;20183;-75
2022/08/16 01:17:18;;;;;;;6.47;4.17;;;19.60;1.00;;;;;;5087945;28;20996;-75
2022/08/16 01:19:51;;;;;;;4.90;4.40;;;19.60;1.00;;;;;;5085778;28;20950;-74
2022/08/16 01:22:47;;;;;;;6.40;4.90;;;19.70;1.00;;;;;;5087368;28;20530;-75
2022/08/16 01:25:18;;;;;;;5.10;4.30;;;19.70;1.00;;;;;;5072659;28;20816;-75
2022/08/16 01:27:48;;;;;;;9.30;4.30;;;19.70;1.00;;;;;;5083380;28;20593;-75
2022/08/16 01:30:22;;;;;;;8.47;4.63;;;19.80;1.00;;;;;;5085170;28;20434;-75
2022/08/16 01:32:50;;;;;;;6.93;4.67;;;19.70;1.00;;;;;;5078963;28;20455;-75
2022/08/16 01:35:39;;;;;;;8.67;4.53;;;19.80;1.00;;;;;;5086137;28;20433;-75
2022/08/16 01:38:28;;;;;;;6.37;4.57;;;19.70;1.00;;;;;;5080494;28;20528;-74
2022/08/16 01:40:58;;;;;;;7.70;4.53;;;19.70;1.00;;;;;;5088332;28;20527;-75
2022/08/16 01:43:24;;;;;;;5.63;4.90;;;19.70;1.00;;;;;;5087437;28;20456;-75
2022/08/16 01:45:58;;;;;;;5.33;4.60;;;19.70;1.00;;;;;;5091220;28;20634;-75
2022/08/16 01:48:28;;;;;;;6.53;4.60;;;19.70;1.00;;;;;;5087936;28;20441;-74
2022/08/16 01:50:56;;;;;;;9.50;4.90;;;19.70;1.00;;;;;;5091543;28;20401;-75
2022/08/16 01:53:22;;;;;;;6.57;5.03;;;19.60;1.00;;;;;;5092825;28;20462;-76
2022/08/16 01:55:49;;;;;;;7.30;4.20;;;19.60;1.00;;;;;;5087053;28;20538;-76
2022/08/16 01:58:15;;;;;;;5.20;4.70;;;19.60;1.00;;;;;;5093891;28;20180;-75
2022/08/16 02:00:41;;;;;;;6.50;4.40;;;19.50;1.00;;;;;;5091549;28;20436;-75
2022/08/16 02:03:07;;;;;;;6.53;4.53;;;19.50;1.00;;;;;;5087386;28;20532;-75
2022/08/16 02:05:32;;;;;;;6.23;4.67;;;19.50;1.00;;;;;;5091214;28;20209;-76
2022/08/16 02:07:58;;;;;;;5.77;4.63;;;19.50;1.00;;;;;;5090625;28;20184;-74
2022/08/16 02:10:24;;;;;;;7.60;4.97;;;20.80;1.00;;;;;;5088262;28;20180;-75
2022/08/16 02:12:50;;;;;;;6.63;4.80;;;19.50;1.00;;;;;;5090388;28;20415;-75
2022/08/16 02:15:18;;;;;;;5.90;4.60;;;19.40;1.00;;;;;;5089340;28;20542;-75
2022/08/16 02:17:43;;;;;;;7.17;4.30;;;19.40;1.00;;;;;;5090763;28;20989;-75
2022/08/16 02:20:10;;;;;;;6.47;4.80;;;19.30;1.00;;;;;;5086943;28;20496;-75
2022/08/16 02:22:36;;;;;;;5.97;4.80;;;19.30;1.00;;;;;;5088068;28;20420;-75
2022/08/16 02:25:10;;;;;;;5.53;4.70;;;19.30;1.00;;;;;;5086792;28;20996;-76
2022/08/16 02:27:37;;;;;;;6.63;4.50;;;19.20;1.00;;;;;;5100216;28;20187;-75
2022/08/16 02:30:06;;;;;;;7.37;4.83;;;19.20;1.00;;;;;;5095125;28;20487;-75
2022/08/16 02:32:31;;;;;;;9.70;5.40;;;19.10;1.00;;;;;;5079150;28;20461;-75
2022/08/16 02:34:57;;;;;;;7.20;5.60;;;19.10;1.00;;;;;;5088444;28;20795;-75
2022/08/16 02:37:22;;;;;;;7.17;4.93;;;19.00;1.00;;;;;;5086285;28;20544;-75
2022/08/16 02:39:48;;;;;;;7.90;5.20;;;19.00;1.00;;;;;;5086014;28;20180;-75
2022/08/16 02:42:14;;;;;;;5.53;4.80;;;18.90;1.00;;;;;;5084535;28;20211;-75
2022/08/16 02:44:40;;;;;;;6.00;5.00;;;18.90;1.00;;;;;;5088555;28;20198;-74
2022/08/16 02:47:06;;;;;;;5.80;5.03;;;18.90;1.00;;;;;;5090200;28;20456;-74
2022/08/16 02:49:31;;;;;;;7.30;5.07;;;19.00;1.00;;;;;;5089086;28;20771;-75
2022/08/16 02:51:57;;;;;;;6.33;5.00;;;18.90;1.00;;;;;;5081752;28;20176;-75
2022/08/16 02:54:22;;;;;;;9.67;5.47;;;18.90;1.00;;;;;;5083528;28;20183;-75
2022/08/16 02:56:48;;;;;;;7.47;4.90;;;18.80;1.00;;;;;;5088578;28;20173;-75
2022/08/16 02:59:13;;;;;;;7.43;5.13;;;18.80;1.00;;;;;;5090005;28;20207;-75
2022/08/16 03:01:40;;;;;;;5.50;5.00;;;18.80;1.00;;;;;;5087412;28;20191;-75
2022/08/16 03:04:06;;;;;;;8.73;4.80;;;18.80;1.00;;;;;;5090196;28;20199;-75
2022/08/16 03:06:32;;;;;;;5.90;4.90;;;18.80;1.00;;;;;;5089748;28;20540;-75
2022/08/16 03:08:58;;;;;;;9.03;5.97;;;18.80;1.00;;;;;;5089332;28;20497;-75
2022/08/16 03:11:24;;;;;;;6.20;5.33;;;18.80;1.00;;;;;;5087258;28;20171;-75
2022/08/16 03:13:53;;;;;;;6.63;5.93;;;18.80;1.00;;;;;;5087041;28;20523;-75
2022/08/16 03:16:20;;;;;;;5.50;5.00;;;18.70;1.00;;;;;;5089824;28;20207;-75
2022/08/16 03:18:46;;;;;;;5.80;5.00;;;18.70;1.00;;;;;;5087175;28;20487;-75
2022/08/16 03:21:12;;;;;;;7.60;5.50;;;18.70;1.00;;;;;;5089476;28;20418;-76
2022/08/16 03:23:39;;;;;;;11.43;5.37;;;18.70;1.00;;;;;;5087789;28;20453;-75
2022/08/16 03:26:05;;;;;;;5.83;5.23;;;18.70;1.00;;;;;;5093181;28;20452;-75
2022/08/16 03:28:31;;;;;;;6.10;5.47;;;18.70;1.00;;;;;;5090137;28;20510;-75
2022/08/16 03:30:56;;;;;;;9.50;5.90;;;18.70;1.00;;;;;;5088316;28;20180;-75
2022/08/16 03:33:22;;;;;;;11.30;6.57;;;18.60;1.00;;;;;;5087419;28;20303;-75
2022/08/16 03:35:50;;;;;;;6.97;5.90;;;18.50;1.00;;;;;;5088184;28;20195;-75
2022/08/16 03:38:17;;;;;;;7.67;6.43;;;18.60;1.00;;;;;;5084593;28;20406;-75
2022/08/16 03:40:43;;;;;;;7.30;5.50;;;18.70;1.00;;;;;;5086508;28;20602;-75
2022/08/16 03:43:12;;;;;;;6.43;5.80;;;18.70;1.00;;;;;;5088716;28;20467;-75
2022/08/16 03:45:39;;;;;;;6.13;5.50;;;18.70;1.00;;;;;;5087061;28;20461;-75
2022/08/16 03:48:06;;;;;;;6.27;5.67;;;18.70;1.00;;;;;;5089717;28;20437;-75
2022/08/16 03:50:34;;;;;;;6.40;5.40;;;18.70;1.00;;;;;;5082789;28;20435;-75
2022/08/16 03:52:59;;;;;;;7.40;5.50;;;18.70;1.00;;;;;;5088155;28;20437;-75
2022/08/16 03:55:25;;;;;;;6.00;5.37;;;18.80;1.00;;;;;;5083401;28;20453;-75
2022/08/16 03:57:52;;;;;;;7.43;5.00;;;18.60;1.00;;;;;;5084734;28;20262;-74
2022/08/16 04:00:22;;;;;;;8.43;5.50;;;18.60;1.00;;;;;;5078887;28;20642;-75
2022/08/16 04:02:48;;;;;;;7.83;6.10;;;18.50;1.00;;;;;;5086445;28;20434;-75
2022/08/16 04:05:15;;;;;;;7.30;5.73;;;18.50;1.00;;;;;;5087225;28;20471;-75
2022/08/16 04:07:40;;;;;;;8.00;5.93;;;18.50;1.00;;;;;;5086337;28;20176;-74
2022/08/16 04:10:08;;;;;;;7.77;6.00;;;18.50;1.00;;;;;;5086317;28;20459;-75
2022/08/16 04:12:34;;;;;;;7.03;5.53;;;18.50;1.00;;;;;;5086172;28;20192;-75
2022/08/16 04:15:01;;;;;;;10.60;6.40;;;18.60;1.00;;;;;;5080368;28;20758;-75
2022/08/16 04:17:28;;;;;;;9.60;6.27;;;18.80;1.00;;;;;;5087298;28;20576;-75
2022/08/16 04:19:54;;;;;;;8.33;6.33;;;18.90;1.00;;;;;;5087911;28;20417;-75
2022/08/16 04:22:20;;;;;;;7.60;6.67;;;19.10;1.00;;;;;;5085666;28;20446;-75
2022/08/16 04:24:45;;;;;;;8.70;6.33;;;19.00;1.00;;;;;;5086231;28;20476;-75
2022/08/16 04:27:11;;;;;;;8.07;6.20;;;19.20;1.00;;;;;;5093104;28;20202;-75
2022/08/16 04:29:36;;;;;;;7.10;6.40;;;19.20;1.00;;;;;;5086158;28;20180;-76
2022/08/16 04:32:02;;;;;;;7.17;6.10;;;19.30;1.00;;;;;;5067642;28;20534;-75
2022/08/16 04:34:31;;;;;;;7.33;6.47;;;19.40;1.00;;;;;;5068520;28;20226;-75
2022/08/16 04:36:58;;;;;;;8.30;6.30;;;19.50;1.00;;;;;;5084441;28;20616;-75
2022/08/16 04:39:24;;;;;;;8.93;6.50;;;19.50;1.00;;;;;;5086954;28;20816;-75
2022/08/16 04:41:50;;;;;;;11.70;6.00;;;19.60;1.00;;;;;;5079090;28;20609;-75
2022/08/16 04:44:16;;;;;;;9.50;6.37;;;19.60;1.00;;;;;;5090806;28;20409;-75
2022/08/16 04:46:42;;;;;;;7.73;5.40;;;20.10;1.00;;;;;;5084247;28;20187;-75
2022/08/16 04:49:08;;;;;;;8.20;5.70;;;19.80;1.00;;;;;;5088176;28;20618;-75
2022/08/16 04:51:34;;;;;;;6.50;5.27;;;19.90;1.00;;;;;;5081265;28;20558;-75
2022/08/16 04:53:59;;;;;;;7.30;5.50;;;19.90;1.00;;;;;;5079482;28;20196;-74
2022/08/16 04:56:25;;;;;;;7.17;5.53;;;19.90;1.00;;;;;;5089501;28;20183;-75
2022/08/16 04:58:50;;;;;;;8.57;6.00;;;20.00;1.00;;;;;;5095997;28;20270;-75
2022/08/16 05:01:16;;;;;;;7.80;5.93;;;20.10;1.00;;;;;;5080420;28;20190;-74
2022/08/16 05:03:42;;;;;;;7.67;5.60;;;20.10;1.00;;;;;;5076608;28;20669;-75
2022/08/16 05:06:09;;;;;;;6.90;5.80;;;20.30;1.00;;;;;;5088610;28;20245;-75
2022/08/16 05:08:34;;;;;;;12.33;5.93;;;20.30;1.00;;;;;;5086968;28;20441;-76
2022/08/16 05:11:04;;;;;;;6.70;5.70;;;20.40;1.00;;;;;;5084909;28;20438;-75
2022/08/16 05:13:30;;;;;;;12.43;6.03;;;20.40;1.00;;;;;;5085717;28;20209;-75
2022/08/16 05:15:56;;;;;;;9.57;6.13;;;20.40;1.00;;;;;;5091415;28;20471;-76
2022/08/16 05:18:21;;;;;;;7.50;5.43;;;20.50;1.00;;;;;;5092834;28;20896;-76
2022/08/16 05:20:47;;;;;;;8.90;5.83;;;20.50;1.00;;;;;;5087891;28;20195;-74
2022/08/16 05:23:13;;;;;;;9.90;6.40;;;20.60;1.00;;;;;;5089528;28;20245;-76
2022/08/16 05:25:39;;;;;;;9.70;6.10;;;20.70;1.00;;;;;;5084500;28;20215;-76
2022/08/16 05:28:04;;;;;;;7.30;6.10;;;20.70;1.00;;;;;;5090490;28;20824;-76
2022/08/16 05:30:30;;;;;;;10.37;6.70;;;20.80;1.00;;;;;;5081784;28;20188;-76
2022/08/16 05:32:55;;;;;;;7.00;6.17;;;20.90;1.00;;;;;;5090658;28;20200;-76
2022/08/16 05:35:21;;;;;;;10.03;6.70;;;20.90;1.00;;;;;;5085980;28;20229;-75
2022/08/16 05:37:46;;;;;;;10.27;6.20;;;21.00;1.00;;;;;;5090924;28;20598;-76
2022/08/16 05:40:12;;;;;;;9.07;6.10;;;21.10;1.00;;;;;;5084571;28;20187;-76
2022/08/16 05:42:38;;;;;;;10.30;6.87;;;21.20;1.00;;;;;;5091710;28;20612;-76
2022/08/16 05:45:05;;;;;;;8.13;6.30;;;21.30;1.00;;;;;;5088653;28;20479;-75
2022/08/16 05:47:31;;;;;;;9.87;6.40;;;21.40;1.00;;;;;;5091756;28;20201;-76
2022/08/16 05:49:56;;;;;;;7.77;6.67;;;21.50;1.00;;;;;;5087140;28;20433;-76
2022/08/16 05:52:22;;;;;;;8.93;6.80;;;21.50;1.00;;;;;;5091121;28;20700;-76
2022/08/16 05:54:47;;;;;;;12.27;6.90;;;21.40;1.00;;;;;;5073413;28;20646;-76
2022/08/16 05:57:15;;;;;;;14.53;6.33;;;21.40;1.00;;;;;;5097442;28;20179;-75
2022/08/16 05:59:40;;;;;;;9.40;6.60;;;21.50;1.00;;;;;;5104709;28;20183;-76
2022/08/16 06:02:06;;;;;;;9.73;6.80;;;21.60;1.00;;;;;;5082694;28;20551;-75
2022/08/16 06:04:32;;;;;;;8.33;6.67;;;21.50;1.00;;;;;;5088368;28;20183;-76
2022/08/16 06:06:58;;;;;;;12.30;7.03;;;21.50;1.00;;;;;;5089403;28;20952;-76
2022/08/16 06:09:25;;;;;;;8.30;6.47;;;21.50;1.00;;;;;;5087519;28;20287;-76
2022/08/16 06:11:51;;;;;;;7.27;6.57;;;21.70;1.00;;;;;;5091293;28;20193;-76
2022/08/16 06:14:17;;;;;;;7.88;6.20;;;21.70;1.00;;;;;;5081364;28;20448;-77
2022/08/16 06:16:42;;;;;;;7.60;6.50;;;21.80;1.00;;;;;;5076060;28;20275;-76
2022/08/16 06:19:08;;;;;;;7.60;6.00;;;21.80;1.00;;;;;;5084130;28;20547;-76
2022/08/16 06:21:34;;;;;;;12.07;6.50;;;21.80;1.00;;;;;;5084977;28;20187;-76
2022/08/16 06:24:00;;;;;;;8.23;6.33;;;21.90;1.00;;;;;;5089377;28;20199;-77
2022/08/16 06:26:25;;;;;;;8.17;6.53;;;21.90;1.00;;;;;;5088378;28;20202;-76
2022/08/16 06:28:51;;;;;;;10.00;6.67;;;22.00;1.00;;;;;;5086621;28;20190;-77
2022/08/16 06:31:16;;;;;;;8.50;7.00;;;22.10;1.00;;;;;;5080227;28;20592;-76
2022/08/16 06:33:43;;;;;;;9.43;6.70;;;22.20;1.00;;;;;;5084080;28;20231;-77
2022/08/16 06:36:10;;;;;;;9.90;6.43;;;22.20;1.00;;;;;;5082819;28;20628;-76
2022/08/16 06:38:35;;;;;;;9.90;6.60;;;22.40;1.00;;;;;;5091817;28;20417;-77
2022/08/16 06:41:03;;;;;;;10.37;6.87;;;22.60;1.00;;;;;;5076339;28;20475;-74
2022/08/16 06:43:28;;;;;;;9.57;6.90;;;22.60;1.00;;;;;;5084175;28;20206;-77
2022/08/16 06:45:54;;;;;;;8.67;7.10;;;22.60;1.00;;;;;;5115995;28;20484;-77
2022/08/16 06:48:20;;;;;;;9.30;7.20;;;22.70;1.00;;;;;;5106340;28;20175;-80
2022/08/16 06:50:51;;;;;;;10.57;6.40;;;22.80;1.00;;;;;;5085140;28;20418;-78
2022/08/16 06:53:17;;;;;;;8.63;6.50;;;23.00;1.00;;;;;;5084800;28;20184;-76
2022/08/16 06:55:43;;;;;;;13.40;6.57;;;23.50;1.00;;;;;;5090968;28;20424;-76
2022/08/16 06:58:09;;;;;;;14.00;8.13;;;23.80;1.00;;;;;;5094154;28;20430;-77
2022/08/16 07:00:37;;;;;;;12.27;7.13;;;23.80;1.00;;;;;;5089696;28;20193;-77
2022/08/16 07:03:03;;;;;;;10.37;6.97;;;23.90;1.00;;;;;;5085274;28;20523;-80
2022/08/16 07:05:30;;;;;;;14.23;8.00;;;23.90;1.00;;;;;;5090359;28;20536;-78
2022/08/16 07:07:56;;;;;;;15.50;10.77;;;24.00;1.00;;;;;;5089257;28;20429;-77
2022/08/16 07:10:22;;;;;;;11.63;7.87;;;24.00;1.00;;;;;;5089728;28;20413;-76
2022/08/16 07:12:49;;;;;;;13.10;9.07;;;24.00;1.00;;;;;;5082407;28;20665;-77
2022/08/16 07:15:16;;;;;;;11.67;7.70;;;24.00;1.00;;;;;;5089873;28;20759;-77
2022/08/16 07:17:43;;;;;;;10.63;8.37;;;24.00;1.00;;;;;;5083183;28;20540;-77
2022/08/16 07:20:11;;;;;;;8.60;7.70;;;24.10;1.00;;;;;;5088721;28;20413;-77
2022/08/16 07:22:37;;;;;;;10.60;7.77;;;24.30;1.00;;;;;;5086249;28;20510;-77
2022/08/16 07:25:04;;;;;;;11.10;8.00;;;24.50;1.00;;;;;;5088898;28;20456;-78
2022/08/16 07:27:30;;;;;;;14.10;6.90;;;24.40;1.00;;;;;;5091204;28;20203;-77
2022/08/16 07:29:55;;;;;;;10.67;7.07;;;24.40;1.00;;;;;;5086992;28;20833;-76
2022/08/16 07:32:21;;;;;;;9.03;6.97;;;24.60;1.00;;;;;;5082301;28;20231;-78
2022/08/16 07:34:46;;;;;;;10.33;7.67;;;24.50;1.00;;;;;;5073790;28;20180;-77
2022/08/16 07:37:12;;;;;;;10.57;7.80;;;24.80;1.00;;;;;;5086129;28;20718;-78
2022/08/16 07:39:38;;;;;;;10.47;7.20;;;24.90;1.00;;;;;;5082405;28;20180;-76
2022/08/16 07:42:04;;;;;;;10.53;6.90;;;25.10;1.00;;;;;;5076635;28;20660;-77
2022/08/16 07:44:29;;;;;;;10.83;7.37;;;25.10;1.00;;;;;;5087438;28;20526;-78
2022/08/16 07:46:55;;;;;;;9.90;6.53;;;25.30;1.00;;;;;;5084499;28;20433;-76
2022/08/16 07:49:22;;;;;;;7.60;6.80;;;25.60;1.00;;;;;;5080127;28;20634;-76
2022/08/16 07:51:48;;;;;;;9.73;6.50;;;25.90;1.00;;;;;;5069779;28;20435;-76
2022/08/16 07:54:13;;;;;;;11.20;7.77;;;26.10;1.00;;;;;;5085862;28;20690;-76
2022/08/16 07:56:39;;;;;;;9.50;7.07;;;26.40;1.00;;;;;;5085465;28;20187;-76
2022/08/16 07:59:05;;;;;;;10.40;6.60;;;26.30;1.00;;;;;;5085220;28;20176;-76
2022/08/16 08:01:32;;;;;;;13.50;6.80;;;26.30;1.00;;;;;;5086663;28;20213;-76
2022/08/16 08:03:58;;;;;;;10.70;7.20;;;26.80;1.00;;;;;;5091907;28;20440;-76
2022/08/16 08:06:27;;;;;;;10.87;7.13;;;27.20;1.00;;;;;;5085398;28;20460;-76
2022/08/16 08:08:53;;;;;;;15.20;7.03;;;28.00;1.00;;;;;;5087549;28;20293;-76
2022/08/16 08:11:20;;;;;;;13.00;7.03;;;28.70;1.00;;;;;;5086158;28;20182;-76
2022/08/16 08:13:46;;;;;;;12.37;7.40;;;29.90;1.00;;;;;;5089035;28;20194;-77
2022/08/16 08:16:11;;;;;;;9.00;7.03;;;30.90;1.00;;;;;;5088844;28;20573;-77
2022/08/16 08:18:37;;;;;;;7.13;6.32;;;31.50;1.00;;;;;;5087126;28;20187;-77
2022/08/16 08:21:03;;;;;;;8.73;7.40;;;32.40;1.00;;;;;;5079043;28;20284;-77
2022/08/16 08:23:28;;;;;;;11.88;7.45;;;32.80;1.00;;;;;;5080448;28;20203;-77
2022/08/16 08:25:54;;;;;;;9.80;7.05;;;33.40;1.00;;;;;;5086126;28;20195;-77
2022/08/16 08:28:20;;;;;;;8.55;6.68;;;33.80;1.00;;;;;;5088860;28;20191;-77
2022/08/16 08:30:46;;;;;;;11.88;6.85;;;33.90;1.00;;;;;;5103665;28;20739;-77
2022/08/16 08:33:11;;;;;;;8.40;6.55;;;34.60;1.00;;;;;;5079944;28;20194;-77
2022/08/16 08:35:37;;;;;;;8.57;6.38;;;35.40;1.00;;;;;;5082657;28;20280;-78
2022/08/16 08:38:07;;;;;;;11.50;6.82;;;35.20;1.00;;;;;;5079507;28;20241;-77
2022/08/16 08:40:34;;;;;;;6.82;6.10;;;35.90;1.00;;;;;;5084767;28;20179;-77
2022/08/16 08:43:01;;;;;;;9.57;7.13;;;36.10;1.00;;;;;;5093382;28;20425;-77
2022/08/16 08:45:28;;;;;;;7.15;6.05;;;36.40;1.00;;;;;;5081006;28;20273;-77
2022/08/16 08:47:56;;;;;;;12.07;6.43;;;36.40;1.00;;;;;;5081005;28;20642;-78
2022/08/16 08:50:23;;;;;;;8.05;5.75;;;37.30;1.00;;;;;;5079647;28;20192;-78
2022/08/16 08:52:50;;;;;;;12.40;6.05;;;38.10;1.00;;;;;;5080575;28;20199;-78
2022/08/16 08:55:17;;;;;;;11.32;6.40;;;38.80;1.00;;;;;;5085967;28;20187;-78
2022/08/16 08:57:45;;;;;;;8.68;6.18;;;38.40;1.00;;;;;;5076423;28;20184;-77
2022/08/16 09:00:13;;;;;;;9.38;6.45;;;36.90;1.00;;;;;;5088992;28;20179;-77
2022/08/16 09:02:39;;;;;;;9.80;6.15;;;36.20;1.00;;;;;;5093132;28;20581;-77
2022/08/16 09:05:05;;;;;;;7.97;6.65;;;35.50;1.00;;;;;;5101131;28;20692;-77
2022/08/16 09:07:30;;;;;;;10.20;6.63;;;34.90;1.00;;;;;;5086978;28;20176;-77
2022/08/16 09:09:56;;;;;;;7.43;6.72;;;35.20;1.00;;;;;;5087636;28;20201;-77
2022/08/16 09:12:22;;;;;;;9.80;7.20;;;34.00;1.00;;;;;;5081751;28;20207;-77
2022/08/16 09:14:48;;;;;;;8.75;7.20;;;32.90;1.00;;;;;;5086318;28;20206;-77
2022/08/16 09:17:13;;;;;;;9.85;7.22;;;32.20;1.00;;;;;;5082237;28;20275;-77
2022/08/16 09:19:39;;;;;;;11.68;7.68;;;31.50;1.00;;;;;;5086939;28;20187;-77
2022/08/16 09:22:05;;;;;;;8.88;7.63;;;32.00;1.00;;;;;;5081565;28;20621;-77
2022/08/16 09:24:32;;;;;;;9.85;8.25;;;32.00;1.00;;;;;;5086640;28;20558;-77
2022/08/16 09:26:58;;;;;;;8.30;7.43;;;32.50;1.00;;;;;;5077978;28;20194;-77
2022/08/16 09:29:24;;;;;;;9.13;7.30;;;32.00;1.00;;;;;;5082094;28;20171;-77
2022/08/16 09:31:50;;;;;;;9.38;7.70;;;31.20;1.00;;;;;;5084534;28;20169;-76
2022/08/16 09:34:15;;;;;;;10.10;8.07;;;30.30;1.00;;;;;;5087853;28;20169;-76
2022/08/16 09:36:42;;;;;;;14.45;8.20;;;29.70;1.00;;;;;;5080871;28;20568;-77
2022/08/16 09:39:08;;;;;;;8.93;7.65;;;29.30;1.00;;;;;;5086785;28;20281;-77
2022/08/16 09:41:33;;;;;;;10.48;7.75;;;29.30;1.00;;;;;;5087453;28;20184;-77
2022/08/16 09:43:59;;;;;;;9.43;7.63;;;29.70;1.00;;;;;;5097132;28;20201;-77
2022/08/16 09:46:26;;;;;;;9.30;7.57;;;30.80;1.00;;;;;;5082560;28;20281;-77
2022/08/16 09:48:53;;;;;;;10.32;8.00;;;32.60;1.00;;;;;;5096718;28;20435;-77
2022/08/16 09:51:20;;;;;;;9.32;6.68;;;33.70;1.00;;;;;;5081190;28;20180;-77
2022/08/16 09:53:46;;;;;;;9.05;7.25;;;35.00;1.00;;;;;;5088298;28;20282;-77
2022/08/16 09:56:29;;;;;;;7.70;7.00;;;35.50;1.00;;;;;;5080192;28;20186;-77
2022/08/16 09:58:56;;;;;;;9.07;7.38;;;35.90;1.00;;;;;;5079952;28;20722;-77
2022/08/16 10:01:23;;;;;;;9.10;6.32;;;36.80;1.00;;;;;;5089196;28;20194;-77
2022/08/16 10:03:50;;;;;;;15.13;6.60;;;38.50;1.00;;;;;;5092559;28;20191;-78
2022/08/16 10:06:17;;;;;;;10.65;6.13;;;38.70;1.00;;;;;;5088559;28;20194;-77
2022/08/16 10:08:42;;;;;;;7.00;6.30;;;37.80;1.00;;;;;;5084753;28;20194;-78
2022/08/16 10:13:52;;;;;;;10.35;5.85;;;36.80;1.00;;;;;;5084356;28;20558;-77
2022/08/16 10:16:18;;;;;;;7.07;6.03;;;36.60;1.00;;;;;;5096403;28;20190;-77
2022/08/16 10:18:43;;;;;;;8.95;6.07;;;35.40;1.00;;;;;;5088763;28;20187;-77
2022/08/16 10:21:09;;;;;;;11.57;6.20;;;34.30;1.00;;;;;;5089270;28;20661;-77
2022/08/16 10:23:35;;;;;;;7.90;6.82;;;33.30;1.00;;;;;;5093159;28;20680;-77
2022/08/16 10:26:01;;;;;;;6.75;5.68;;;33.40;1.00;;;;;;5084594;28;20264;-76
2022/08/16 10:28:27;;;;;;;6.15;5.32;;;33.80;1.00;;;;;;5082101;28;20219;-77
2022/08/16 10:30:53;;;;;;;6.35;5.75;;;33.40;1.00;;;;;;5088349;28;20668;-76
2022/08/16 10:33:18;;;;;;;9.82;6.03;;;33.20;1.00;;;;;;5084758;28;20200;-77
2022/08/16 10:35:45;;;;;;;12.50;6.40;;;32.30;1.00;;;;;;5082801;28;20172;-77
2022/08/16 10:38:13;;;;;;;9.73;6.38;;;32.20;1.00;;;;;;5083753;28;20193;-77
2022/08/16 10:40:39;;;;;;;7.50;6.43;;;32.80;1.00;;;;;;5083724;28;20222;-76
2022/08/16 10:43:05;;;;;;;8.07;5.88;;;33.60;1.00;;;;;;5088787;28;20201;-77
2022/08/16 10:45:31;;;;;;;10.23;6.13;;;34.10;1.00;;;;;;5085819;28;20282;-77
2022/08/16 10:47:58;;;;;;;10.30;6.70;;;33.70;1.00;;;;;;5090775;28;20171;-77
2022/08/16 10:50:25;;;;;;;6.32;5.50;;;33.10;1.00;;;;;;5094350;28;20257;-77
2022/08/16 10:52:52;;;;;;;8.68;5.82;;;34.10;1.00;;;;;;5091086;28;20183;-77
2022/08/16 10:55:18;;;;;;;6.47;5.53;;;34.70;1.00;;;;;;5095971;28;20171;-78
2022/08/16 10:57:43;;;;;;;7.40;5.30;;;36.00;1.00;;;;;;5083641;28;20689;-77
2022/08/16 11:00:13;;;;;;;7.95;5.30;;;37.70;1.00;;;;;;5087875;28;20191;-77
2022/08/16 11:02:39;;;;;;;10.15;5.50;;;38.40;1.00;;;;;;5088403;28;20191;-77
2022/08/16 11:05:08;;;;;;;6.57;5.20;;;38.10;1.00;;;;;;5086126;28;20205;-78
2022/08/16 11:07:34;;;;;;;6.82;5.43;;;37.00;1.00;;;;;;5100000;28;20186;-77
2022/08/16 11:10:01;;;;;;;6.05;5.30;;;36.40;1.00;;;;;;5090275;28;20638;-78
2022/08/16 11:12:27;;;;;;;7.80;5.05;;;37.30;1.00;;;;;;5087044;28;20243;-77
2022/08/16 11:14:53;;;;;;;5.88;5.13;;;37.90;1.00;;;;;;5091189;28;20171;-77
2022/08/16 11:17:18;;;;;;;7.38;5.30;;;37.30;1.00;;;;;;5092324;28;20236;-77
2022/08/16 11:19:44;;;;;;;7.90;6.40;;;36.80;1.00;;;;;;5088051;28;20183;-77
2022/08/16 11:22:09;;;;;;;7.88;5.53;;;36.10;1.00;;;;;;5088800;28;20202;-77
2022/08/16 11:24:39;;;;;;;7.63;5.50;;;35.20;1.00;;;;;;5083869;28;20264;-77
2022/08/16 11:27:07;;;;;;;5.93;5.22;;;34.60;1.00;;;;;;5092411;28;20195;-78
2022/08/16 11:29:33;;;;;;;8.15;5.05;;;34.20;1.00;;;;;;5088943;28;20187;-77
2022/08/16 11:31:59;;;;;;;6.43;5.30;;;33.70;1.00;;;;;;5108837;28;20163;-76
2022/08/16 11:34:25;;;;;;;6.65;5.20;;;33.10;1.00;;;;;;5094812;28;20182;-77
2022/08/16 11:36:51;;;;;;;6.03;5.43;;;33.10;1.00;;;;;;5095381;28;20571;-77
2022/08/16 11:39:16;;;;;;;6.55;5.30;;;33.30;1.00;;;;;;5087859;28;20203;-77
2022/08/16 11:41:42;;;;;;;7.03;5.10;;;33.70;1.00;;;;;;5095078;28;20183;-77
2022/08/16 11:44:10;;;;;;;8.07;5.20;;;34.70;1.00;;;;;;5097030;28;20225;-77
2022/08/16 11:46:37;;;;;;;6.65;4.90;;;37.30;1.00;;;;;;5089678;28;20661;-77
2022/08/16 11:49:04;;;;;;;7.65;5.03;;;39.30;1.00;;;;;;5095749;28;20210;-78
2022/08/16 11:51:30;;;;;;;8.25;5.30;;;39.30;1.00;;;;;;5091883;28;20242;-77
2022/08/16 11:53:56;;;;;;;5.75;4.97;;;37.50;1.00;;;;;;5082348;28;20191;-77
2022/08/16 11:56:22;;;;;;;5.55;5.00;;;35.90;1.00;;;;;;5090742;28;20215;-77
2022/08/16 11:58:48;;;;;;;8.63;5.57;;;34.50;1.00;;;;;;5083544;28;20225;-77
2022/08/16 12:01:14;;;;;;;6.72;5.03;;;33.30;1.00;;;;;;5084548;28;20234;-77
2022/08/16 12:03:40;;;;;;;6.93;4.82;;;33.70;1.00;;;;;;5090534;28;20199;-77
2022/08/16 12:06:13;;;;;;;9.45;5.53;;;36.60;1.00;;;;;;5091248;28;20282;-77
2022/08/16 12:08:39;;;;;;;19.55;5.00;;;38.10;1.00;;;;;;5090861;28;20183;-77
2022/08/16 12:11:05;;;;;;;7.60;4.50;;;37.80;1.00;;;;;;5089316;28;20651;-77
2022/08/16 12:13:31;;;;;;;5.03;4.28;;;39.30;1.00;;;;;;5084882;28;20304;-77
2022/08/16 12:15:57;;;;;;;10.80;5.05;;;40.80;1.00;;;;;;5092391;28;20175;-78
2022/08/16 12:18:23;;;;;;;5.88;4.38;;;39.80;1.00;;;;;;5096903;28;20585;-78
2022/08/16 12:20:49;;;;;;;7.97;4.60;;;38.90;1.00;;;;;;5079903;28;20660;-77
2022/08/16 12:23:15;;;;;;;6.97;5.00;;;39.10;1.00;;;;;;5087009;28;20195;-77
2022/08/16 12:25:40;;;;;;;5.57;4.82;;;40.80;1.00;;;;;;5089490;28;20194;-77
2022/08/16 12:28:08;;;;;;;8.90;4.80;;;42.40;1.00;;;;;;5088008;28;20194;-78
2022/08/16 12:30:37;;;;;;;5.35;4.57;;;41.00;1.00;;;;;;5085069;28;20179;-78
2022/08/16 12:33:04;;;;;;;5.05;4.50;;;41.40;1.00;;;;;;5091833;28;20197;-78
2022/08/16 12:35:31;;;;;;;5.05;4.55;;;41.60;1.00;;;;;;5087017;28;20176;-78
2022/08/16 12:37:58;;;;;;;6.80;4.20;;;42.00;1.00;;;;;;5080584;28;20226;-78
2022/08/16 12:40:26;;;;;;;4.53;4.10;;;42.60;1.00;;;;;;5087367;28;20634;-78
2022/08/16 12:42:56;;;;;;;5.63;4.07;;;42.50;1.00;;;;;;5085861;28;20226;-78
2022/08/16 12:45:22;;;;;;;4.63;4.00;;;42.90;1.00;;;;;;5093888;28;20268;-78
2022/08/16 12:50:33;;;;;;;8.43;4.13;;;44.50;1.00;;;;;;5087637;28;20201;-78
2022/08/16 12:52:59;;;;;;;12.18;5.55;;;44.70;1.00;;;;;;5078929;28;20199;-78
2022/08/16 12:55:26;;;;;;;4.88;3.97;;;45.50;1.00;;;;;;5093281;28;20181;-78
2022/08/16 12:57:55;;;;;;;5.65;4.22;;;45.90;1.00;;;;;;5083309;28;20191;-78